createdAt,value
2023-05-21T00:02:19.926Z,101759.69
2023-05-21T00:04:46.525Z,101756.28
2023-05-21T00:07:13.421Z,101759.72
2023-05-21T00:09:39.779Z,101758.00
2023-05-21T00:12:06.563Z,101755.44
2023-05-21T00:14:33.022Z,101753.81
2023-05-21T00:16:59.362Z,101752.13
2023-05-21T00:19:27.138Z,101755.63
2023-05-21T00:21:54.815Z,101757.38
2023-05-21T00:24:21.402Z,101753.94
2023-05-21T00:26:47.822Z,101748.81
2023-05-21T00:29:14.232Z,101751.75
2023-05-21T00:31:40.978Z,101746.63
2023-05-21T00:34:07.400Z,101749.38
2023-05-21T00:36:34.783Z,101752.84
2023-05-21T00:39:04.288Z,101746.81
2023-05-21T00:41:30.680Z,101746.00
2023-05-21T00:43:57.278Z,101748.84
2023-05-21T00:46:23.687Z,101745.38
2023-05-21T00:48:50.121Z,101749.00
2023-05-21T00:51:16.859Z,101752.50
2023-05-21T00:53:44.337Z,101756.06
2023-05-21T00:56:10.749Z,101748.28
2023-05-21T00:58:38.544Z,101755.44
2023-05-21T01:01:06.946Z,101754.72
2023-05-21T01:03:38.389Z,101757.44
2023-05-21T01:06:05.653Z,101749.69
2023-05-21T01:08:32.249Z,101756.56
2023-05-21T01:10:58.627Z,101748.66
2023-05-21T01:13:25.143Z,101756.59
2023-05-21T01:15:52.020Z,101752.34
2023-05-21T01:18:20.158Z,101750.69
2023-05-21T01:20:50.277Z,101753.38
2023-05-21T01:23:17.159Z,101749.91
2023-05-21T01:25:43.874Z,101743.78
2023-05-21T01:28:10.263Z,101742.88
2023-05-21T01:30:36.713Z,101745.63
2023-05-21T01:33:23.505Z,101748.38
2023-05-21T01:36:08.908Z,101746.56
2023-05-21T01:38:41.901Z,101739.50
2023-05-21T01:41:10.267Z,101743.13
2023-05-21T01:43:38.751Z,101746.72
2023-05-21T01:46:05.640Z,101741.72
2023-05-21T01:48:32.086Z,101744.53
2023-05-21T01:50:59.862Z,101748.84
2023-05-21T01:53:26.342Z,101742.69
2023-05-21T01:55:54.532Z,101742.78
2023-05-21T01:58:21.583Z,101747.19
2023-05-21T02:00:48.045Z,101740.28
2023-05-21T02:03:17.334Z,101736.81
2023-05-21T02:05:43.805Z,101744.63
2023-05-21T02:08:10.447Z,101746.38
2023-05-21T02:10:36.964Z,101748.13
2023-05-21T02:13:03.577Z,101747.25
2023-05-21T02:15:30.379Z,101748.13
2023-05-21T02:17:58.403Z,101750.00
2023-05-21T02:20:25.049Z,101750.88
2023-05-21T02:22:51.547Z,101747.38
2023-05-21T02:25:18.460Z,101753.56
2023-05-21T02:27:46.586Z,101752.75
2023-05-21T02:30:14.094Z,101749.31
2023-05-21T02:32:42.807Z,101753.78
2023-05-21T02:35:10.112Z,101758.38
2023-05-21T02:37:36.597Z,101752.94
2023-05-21T02:40:04.284Z,101748.53
2023-05-21T02:42:30.766Z,101749.44
2023-05-21T02:44:57.174Z,101750.41
2023-05-21T02:47:23.859Z,101754.03
2023-05-21T02:49:50.689Z,101750.56
2023-05-21T02:52:20.096Z,101745.25
2023-05-21T02:54:46.923Z,101744.50
2023-05-21T02:57:13.432Z,101746.28
2023-05-21T02:59:39.941Z,101745.31
2023-05-21T03:02:06.760Z,101752.22
2023-05-21T03:04:33.203Z,101752.13
2023-05-21T03:07:02.201Z,101746.97
2023-05-21T03:09:28.644Z,101738.38
2023-05-21T03:11:55.011Z,101739.22
2023-05-21T03:14:21.885Z,101741.81
2023-05-21T03:16:49.136Z,101736.59
2023-05-21T03:19:15.685Z,101740.13
2023-05-21T03:21:43.133Z,101741.03
2023-05-21T03:24:09.693Z,101742.69
2023-05-21T03:26:36.066Z,101739.97
2023-05-21T03:29:02.487Z,101736.44
2023-05-21T03:31:28.867Z,101740.78
2023-05-21T03:33:55.417Z,101750.41
2023-05-21T03:36:21.852Z,101743.47
2023-05-21T03:38:48.214Z,101746.00
2023-05-21T03:41:14.651Z,101746.81
2023-05-21T03:43:41.307Z,101733.59
2023-05-21T03:46:07.702Z,101737.00
2023-05-21T03:48:45.235Z,101733.41
2023-05-21T03:51:14.043Z,101726.31
2023-05-21T03:53:40.434Z,101727.06
2023-05-21T03:56:10.544Z,101725.09
2023-05-21T03:58:36.979Z,101723.13
2023-05-21T04:01:04.679Z,101717.72
2023-05-21T04:03:33.145Z,101721.00
2023-05-21T04:05:59.725Z,101715.50
2023-05-21T04:08:26.781Z,101714.50
2023-05-21T04:10:53.148Z,101720.47
2023-05-21T04:13:19.583Z,101723.66
2023-05-21T04:15:46.685Z,101724.28
2023-05-21T04:18:13.773Z,101714.38
2023-05-21T04:20:40.181Z,101721.16
2023-05-21T04:23:06.541Z,101726.34
2023-05-21T04:25:34.176Z,101727.75
2023-05-21T04:28:00.958Z,101722.19
2023-05-21T04:30:27.593Z,101728.91
2023-05-21T04:32:54.785Z,101716.31
2023-05-21T04:35:21.419Z,101715.16
2023-05-21T04:37:47.812Z,101717.47
2023-05-21T04:40:18.607Z,101715.28
2023-05-21T04:42:46.684Z,101719.50
2023-05-21T04:45:13.182Z,101710.41
2023-05-21T04:47:39.628Z,101713.59
2023-05-21T04:50:06.522Z,101704.38
2023-05-21T04:52:34.762Z,101710.09
2023-05-21T04:55:01.334Z,101708.72
2023-05-21T04:57:28.281Z,101711.81
2023-05-21T04:59:54.900Z,101707.97
2023-05-21T05:02:21.343Z,101709.44
2023-05-21T05:04:47.780Z,101713.56
2023-05-21T05:07:15.000Z,101710.69
2023-05-21T05:09:41.398Z,101705.94
2023-05-21T05:12:07.820Z,101700.25
2023-05-21T05:14:34.188Z,101706.13
2023-05-21T05:17:00.888Z,101705.88
2023-05-21T05:19:28.718Z,101704.78
2023-05-21T05:21:55.663Z,101709.78
2023-05-21T05:24:22.063Z,101706.88
2023-05-21T05:26:48.480Z,101715.44
2023-05-21T05:29:14.868Z,101710.63
2023-05-21T05:31:41.285Z,101715.56
2023-05-21T05:34:07.700Z,101709.94
2023-05-21T05:36:34.100Z,101704.31
2023-05-21T05:39:00.536Z,101708.28
2023-05-21T05:41:27.161Z,101710.41
2023-05-21T05:43:53.556Z,101711.88
2023-05-21T05:46:19.996Z,101708.81
2023-05-21T05:48:46.500Z,101711.94
2023-05-21T05:51:12.909Z,101709.81
2023-05-21T05:53:39.508Z,101710.28
2023-05-21T05:56:06.146Z,101716.91
2023-05-21T05:58:32.645Z,101714.69
2023-05-21T06:00:59.042Z,101708.94
2023-05-21T06:03:25.805Z,101711.13
2023-05-21T06:05:52.478Z,101711.56
2023-05-21T06:08:18.891Z,101714.56
2023-05-21T06:10:45.508Z,101711.25
2023-05-21T06:13:11.988Z,101708.75
2023-05-21T06:15:39.368Z,101703.56
2023-05-21T06:18:05.935Z,101705.75
2023-05-21T06:20:32.440Z,101702.25
2023-05-21T06:22:59.257Z,101702.34
2023-05-21T06:25:25.794Z,101703.41
2023-05-21T06:27:52.367Z,101703.13
2023-05-21T06:30:18.759Z,101708.34
2023-05-21T06:32:45.343Z,101703.34
2023-05-21T06:35:11.959Z,101696.03
2023-05-21T06:37:38.768Z,101700.19
2023-05-21T06:40:05.606Z,101706.63
2023-05-21T06:42:32.023Z,101701.19
2023-05-21T06:44:58.884Z,101704.38
2023-05-21T06:47:25.377Z,101703.97
2023-05-21T06:49:51.824Z,101701.72
2023-05-21T06:52:18.238Z,101698.13
2023-05-21T06:54:44.671Z,101691.84
2023-05-21T06:57:11.065Z,101701.31
2023-05-21T06:59:37.471Z,101707.25
2023-05-21T07:02:04.746Z,101701.91
2023-05-21T07:04:31.582Z,101702.69
2023-05-21T07:06:58.041Z,101701.69
2023-05-21T07:09:24.445Z,101703.59
2023-05-21T07:11:52.977Z,101703.69
2023-05-21T07:14:19.369Z,101699.97
2023-05-21T07:16:45.951Z,101704.78
2023-05-21T07:19:12.380Z,101702.59
2023-05-21T07:21:38.793Z,101701.19
2023-05-21T07:24:05.431Z,101701.38
2023-05-21T07:26:31.851Z,101697.81
2023-05-21T07:28:58.244Z,101696.66
2023-05-21T07:31:26.058Z,101692.69
2023-05-21T07:33:53.641Z,101694.44
2023-05-21T07:36:20.070Z,101692.41
2023-05-21T07:38:46.549Z,101692.28
2023-05-21T07:41:13.019Z,101693.91
2023-05-21T07:43:39.440Z,101692.84
2023-05-21T07:46:06.411Z,101691.13
2023-05-21T07:48:35.286Z,101686.56
2023-05-21T07:51:01.992Z,101690.69
2023-05-21T07:53:32.295Z,101692.44
2023-05-21T07:55:59.561Z,101687.06
2023-05-21T07:58:25.929Z,101689.84
2023-05-21T08:00:52.758Z,101694.13
2023-05-21T08:03:19.648Z,101694.78
2023-05-21T08:05:50.781Z,101695.19
2023-05-21T08:08:20.496Z,101694.56
2023-05-21T08:10:47.781Z,101688.88
2023-05-21T08:13:15.142Z,101694.78
2023-05-21T08:15:41.618Z,101697.63
2023-05-21T08:18:10.000Z,101696.94
2023-05-21T08:20:37.843Z,101701.84
2023-05-21T08:23:05.769Z,101693.28
2023-05-21T08:25:32.242Z,101695.25
2023-05-21T08:27:58.629Z,101692.25
2023-05-21T08:30:25.020Z,101688.00
2023-05-21T08:32:51.408Z,101690.34
2023-05-21T08:35:17.839Z,101683.34
2023-05-21T08:37:44.420Z,101686.56
2023-05-21T08:40:12.197Z,101689.66
2023-05-21T08:42:40.483Z,101683.97
2023-05-21T08:45:07.175Z,101683.28
2023-05-21T08:47:34.863Z,101686.31
2023-05-21T08:50:04.413Z,101676.56
2023-05-21T08:52:31.752Z,101679.06
2023-05-21T08:55:00.106Z,101673.94
2023-05-21T08:57:26.934Z,101680.66
2023-05-21T08:59:55.040Z,101673.22
2023-05-21T09:02:21.452Z,101674.94
2023-05-21T09:04:49.289Z,101680.41
2023-05-21T09:07:15.935Z,101684.59
2023-05-21T09:09:49.552Z,101673.97
2023-05-21T09:12:15.955Z,101673.50
2023-05-21T09:14:49.826Z,101672.34
2023-05-21T09:17:16.444Z,101679.69
2023-05-21T09:20:01.976Z,101676.75
2023-05-21T09:22:28.518Z,101669.34
2023-05-21T09:24:59.154Z,101665.91
2023-05-21T09:27:26.524Z,101667.38
2023-05-21T09:29:59.925Z,101666.09
2023-05-21T09:32:33.622Z,101667.34
2023-05-21T09:35:06.730Z,101659.38
2023-05-21T09:37:37.655Z,101663.38
2023-05-21T09:43:15.965Z,101666.75
2023-05-21T09:45:52.723Z,101660.38
2023-05-21T09:48:40.752Z,101660.63
2023-05-21T09:51:16.671Z,101665.00
2023-05-21T09:53:48.757Z,101659.31
2023-05-21T09:56:17.560Z,101654.53
2023-05-21T09:58:46.285Z,101661.00
2023-05-21T10:01:12.680Z,101652.50
2023-05-21T10:03:40.095Z,101657.41
2023-05-21T10:06:08.041Z,101658.22
2023-05-21T10:08:36.207Z,101656.97
2023-05-21T10:11:03.764Z,101656.03
2023-05-21T10:13:33.583Z,101650.69
2023-05-21T10:16:01.749Z,101652.00
2023-05-21T10:18:28.405Z,101658.56
2023-05-21T10:20:54.786Z,101659.47
2023-05-21T10:23:21.299Z,101653.78
2023-05-21T10:25:47.852Z,101665.75
2023-05-21T10:28:36.606Z,101662.06
2023-05-21T10:31:04.857Z,101651.91
2023-05-21T10:33:31.353Z,101652.69
2023-05-21T10:36:00.155Z,101654.59
2023-05-21T10:38:26.601Z,101655.09
2023-05-21T10:40:52.978Z,101645.31
2023-05-21T10:43:27.744Z,101653.69
2023-05-21T10:45:59.810Z,101642.72
2023-05-21T10:48:26.205Z,101642.72
2023-05-21T10:51:23.581Z,101638.06
2023-05-21T10:53:58.877Z,101643.50
2023-05-21T10:56:25.348Z,101633.94
2023-05-21T10:58:57.698Z,101631.84
2023-05-21T11:01:26.460Z,101625.16
2023-05-21T11:03:52.908Z,101620.03
2023-05-21T11:06:22.978Z,101628.25
2023-05-21T11:08:49.968Z,101625.56
2023-05-21T11:11:38.032Z,101627.66
2023-05-21T11:14:07.328Z,101631.66
2023-05-21T11:16:33.790Z,101632.50
2023-05-21T11:19:00.406Z,101630.97
2023-05-21T11:21:30.716Z,101639.63
2023-05-21T11:24:01.061Z,101632.41
2023-05-21T11:26:29.731Z,101635.13
2023-05-21T11:29:05.234Z,101633.69
2023-05-21T11:31:55.120Z,101630.94
2023-05-21T11:37:46.044Z,101632.28
2023-05-21T11:40:22.386Z,101623.66
2023-05-21T11:42:49.314Z,101633.72
2023-05-21T11:45:24.256Z,101626.44
2023-05-21T11:47:51.838Z,101625.59
2023-05-21T11:50:35.035Z,101625.72
2023-05-21T11:53:03.028Z,101621.19
2023-05-21T11:55:29.465Z,101630.97
2023-05-21T11:57:56.451Z,101629.88
2023-05-21T12:00:23.161Z,101629.84
2023-05-21T12:02:52.684Z,101629.00
2023-05-21T12:05:19.782Z,101628.41
2023-05-21T12:07:46.703Z,101626.22
2023-05-21T12:10:13.549Z,101620.88
2023-05-21T12:12:53.807Z,101621.31
2023-05-21T12:15:22.806Z,101624.44
2023-05-21T12:17:49.747Z,101622.59
2023-05-21T12:20:16.491Z,101619.59
2023-05-21T12:22:43.531Z,101626.72
2023-05-21T12:25:10.676Z,101622.00
2023-05-21T12:27:37.103Z,101622.63
2023-05-21T12:30:04.026Z,101630.56
2023-05-21T12:32:30.786Z,101629.75
2023-05-21T12:34:57.311Z,101625.09
2023-05-21T12:37:25.401Z,101626.31
2023-05-21T12:39:55.537Z,101626.03
2023-05-21T12:42:26.316Z,101627.31
2023-05-21T12:44:52.986Z,101627.53
2023-05-21T12:47:19.495Z,101628.59
2023-05-21T12:49:48.131Z,101621.56
2023-05-21T12:52:15.055Z,101614.69
2023-05-21T12:54:44.130Z,101615.00
2023-05-21T12:57:12.050Z,101608.94
2023-05-21T12:59:57.594Z,101606.53
2023-05-21T13:02:24.110Z,101617.03
2023-05-21T13:05:00.010Z,101616.00
2023-05-21T13:07:26.842Z,101610.91
2023-05-21T13:09:53.638Z,101608.78
2023-05-21T13:12:23.719Z,101620.13
2023-05-21T13:14:50.938Z,101611.38
2023-05-21T13:17:17.730Z,101614.97
2023-05-21T13:19:53.471Z,101608.44
2023-05-21T13:22:19.880Z,101598.41
2023-05-21T13:24:46.288Z,101588.31
2023-05-21T13:27:12.714Z,101590.31
2023-05-21T13:29:39.102Z,101593.81
2023-05-21T13:32:05.777Z,101592.53
2023-05-21T13:34:32.755Z,101587.38
2023-05-21T13:36:59.161Z,101585.22
2023-05-21T13:39:27.625Z,101580.00
2023-05-21T13:41:54.300Z,101578.91
2023-05-21T13:44:20.668Z,101572.34
2023-05-21T13:46:47.107Z,101567.50
2023-05-21T13:49:13.535Z,101570.59
2023-05-21T13:51:39.891Z,101567.38
2023-05-21T13:54:06.366Z,101569.38
2023-05-21T13:56:33.873Z,101573.31
2023-05-21T13:59:01.348Z,101563.97
2023-05-21T14:01:27.835Z,101573.78
2023-05-21T14:03:54.328Z,101569.31
2023-05-21T14:06:21.753Z,101556.59
2023-05-21T14:08:48.351Z,101555.69
2023-05-21T14:11:14.771Z,101553.06
2023-05-21T14:13:41.363Z,101559.28
2023-05-21T14:16:07.983Z,101553.34
2023-05-21T14:18:34.437Z,101558.97
2023-05-21T14:21:00.935Z,101557.63
2023-05-21T14:23:27.300Z,101555.34
2023-05-21T14:25:53.729Z,101550.25
2023-05-21T14:28:20.124Z,101552.91
2023-05-21T14:30:46.503Z,101542.63
2023-05-21T14:33:13.364Z,101547.66
2023-05-21T14:35:41.403Z,101553.56
2023-05-21T14:38:07.843Z,101538.72
2023-05-21T14:40:34.284Z,101541.38
2023-05-21T14:43:00.745Z,101541.91
2023-05-21T14:45:27.156Z,101546.47
2023-05-21T14:47:53.580Z,101540.44
2023-05-21T14:50:20.005Z,101544.94
2023-05-21T14:52:46.456Z,101550.00
2023-05-21T14:55:13.827Z,101539.25
2023-05-21T14:57:40.342Z,101543.72
2023-05-21T15:00:07.049Z,101534.72
2023-05-21T15:02:33.610Z,101534.94
2023-05-21T15:05:00.157Z,101530.94
2023-05-21T15:07:26.627Z,101538.13
2023-05-21T15:09:53.079Z,101536.41
2023-05-21T15:12:19.531Z,101537.16
2023-05-21T15:14:46.071Z,101534.66
2023-05-21T15:17:12.462Z,101531.88
2023-05-21T15:19:40.614Z,101534.28
2023-05-21T15:22:07.156Z,101536.63
2023-05-21T15:24:33.632Z,101533.75
2023-05-21T15:27:00.003Z,101530.44
2023-05-21T15:29:26.562Z,101533.38
2023-05-21T15:31:53.028Z,101531.91
2023-05-21T15:34:19.490Z,101535.47
2023-05-21T15:36:46.111Z,101534.44
2023-05-21T15:39:12.542Z,101534.88
2023-05-21T15:41:38.961Z,101532.28
2023-05-21T15:44:05.531Z,101530.81
2023-05-21T15:48:58.352Z,101534.84
2023-05-21T15:51:24.903Z,101533.63
2023-05-21T15:53:51.320Z,101531.81
2023-05-21T15:56:17.748Z,101530.78
2023-05-21T15:58:44.193Z,101518.97
2023-05-21T16:01:10.709Z,101517.19
2023-05-21T16:03:37.200Z,101517.41
2023-05-21T16:06:04.386Z,101514.94
2023-05-21T16:08:30.975Z,101516.97
2023-05-21T16:10:57.375Z,101514.13
2023-05-21T16:13:23.760Z,101506.72
2023-05-21T16:15:50.177Z,101507.09
2023-05-21T16:18:16.561Z,101503.91
2023-05-21T16:20:42.997Z,101500.63
2023-05-21T16:23:09.479Z,101509.13
2023-05-21T16:25:36.304Z,101505.53
2023-05-21T16:28:03.126Z,101500.66
2023-05-21T16:30:29.616Z,101502.44
2023-05-21T16:32:56.090Z,101502.31
2023-05-21T16:35:22.673Z,101503.97
2023-05-21T16:37:49.147Z,101498.31
2023-05-21T16:40:15.658Z,101503.97
2023-05-21T16:42:42.036Z,101501.81
2023-05-21T16:45:08.639Z,101497.81
2023-05-21T16:47:35.068Z,101491.72
2023-05-21T16:50:01.902Z,101502.06
2023-05-21T16:52:28.809Z,101495.91
2023-05-21T16:54:55.265Z,101491.38
2023-05-21T16:57:21.669Z,101491.03
2023-05-21T16:59:48.161Z,101488.97
2023-05-21T17:02:14.619Z,101495.44
2023-05-21T17:04:41.081Z,101489.34
2023-05-21T17:07:07.683Z,101488.81
2023-05-21T17:09:34.119Z,101489.28
2023-05-21T17:12:00.613Z,101499.75
2023-05-21T17:14:34.515Z,101491.72
2023-05-21T17:17:01.329Z,101495.16
2023-05-21T17:19:27.736Z,101494.63
2023-05-21T17:21:54.758Z,101497.69
2023-05-21T17:24:21.177Z,101500.34
2023-05-21T17:26:47.565Z,101497.50
2023-05-21T17:29:14.087Z,101501.19
2023-05-21T17:31:40.605Z,101488.88
2023-05-21T17:34:07.119Z,101493.50
2023-05-21T17:36:35.169Z,101496.28
2023-05-21T17:39:02.252Z,101492.94
2023-05-21T17:41:28.675Z,101489.66
2023-05-21T17:43:55.109Z,101491.69
2023-05-21T17:46:22.030Z,101485.34
2023-05-21T17:48:48.454Z,101480.72
2023-05-21T17:51:14.857Z,101490.38
2023-05-21T17:53:41.421Z,101482.50
2023-05-21T17:56:07.967Z,101483.72
2023-05-21T17:58:34.650Z,101481.91
2023-05-21T18:01:01.057Z,101477.94
2023-05-21T18:03:27.705Z,101476.16
2023-05-21T18:05:54.126Z,101477.31
2023-05-21T18:08:20.580Z,101478.66
2023-05-21T18:10:48.005Z,101478.41
2023-05-21T18:13:14.658Z,101473.16
2023-05-21T18:15:43.666Z,101477.84
2023-05-21T18:18:10.159Z,101473.81
2023-05-21T18:20:36.971Z,101481.16
2023-05-21T18:23:03.539Z,101472.47
2023-05-21T18:25:29.926Z,101476.94
2023-05-21T18:27:56.498Z,101475.84
2023-05-21T18:30:22.892Z,101476.50
2023-05-21T18:32:50.627Z,101475.72
2023-05-21T18:35:17.408Z,101479.69
2023-05-21T18:37:44.598Z,101482.41
2023-05-21T18:40:11.909Z,101487.47
2023-05-21T18:42:38.462Z,101486.47
2023-05-21T18:45:08.606Z,101493.16
2023-05-21T18:47:35.109Z,101490.19
2023-05-21T18:50:01.557Z,101492.41
2023-05-21T18:52:27.961Z,101493.19
2023-05-21T18:54:54.536Z,101500.22
2023-05-21T18:57:20.979Z,101500.91
2023-05-21T18:59:47.394Z,101494.44
2023-05-21T19:02:16.001Z,101500.72
2023-05-21T19:04:42.626Z,101498.81
2023-05-21T19:07:09.157Z,101502.97
2023-05-21T19:09:35.585Z,101504.41
2023-05-21T19:12:02.128Z,101509.56
2023-05-21T19:14:28.562Z,101501.78
2023-05-21T19:16:55.831Z,101492.41
2023-05-21T19:19:22.297Z,101500.72
2023-05-21T19:21:48.753Z,101495.75
2023-05-21T19:24:15.154Z,101500.44
2023-05-21T19:26:41.602Z,101500.88
2023-05-21T19:29:09.460Z,101499.28
2023-05-21T19:31:37.185Z,101500.34
2023-05-21T19:34:10.264Z,101498.16
2023-05-21T19:36:51.652Z,101501.03
2023-05-21T19:39:19.773Z,101505.56
2023-05-21T19:41:48.486Z,101510.66
2023-05-21T19:44:15.006Z,101503.63
2023-05-21T19:46:41.510Z,101500.97
2023-05-21T19:49:10.434Z,101499.66
2023-05-21T19:51:38.572Z,101499.91
2023-05-21T19:54:05.725Z,101494.16
2023-05-21T19:56:32.149Z,101493.94
2023-05-21T19:59:00.846Z,101499.34
2023-05-21T20:01:29.067Z,101492.38
2023-05-21T20:03:55.773Z,101496.88
2023-05-21T20:06:22.451Z,101492.81
2023-05-21T20:08:49.164Z,101491.03
2023-05-21T20:11:15.809Z,101484.41
2023-05-21T20:13:42.520Z,101487.69
2023-05-21T20:16:10.345Z,101486.31
2023-05-21T20:18:37.188Z,101489.84
2023-05-21T20:21:06.306Z,101500.09
2023-05-21T20:23:32.879Z,101498.28
2023-05-21T20:25:59.407Z,101496.72
2023-05-21T20:28:27.165Z,101502.00
2023-05-21T20:30:58.054Z,101503.19
2023-05-21T20:33:27.190Z,101505.19
2023-05-21T20:35:53.632Z,101498.34
2023-05-21T20:38:21.065Z,101498.47
2023-05-21T20:40:47.638Z,101499.56
2023-05-21T20:43:14.932Z,101496.97
2023-05-21T20:45:42.223Z,101496.97
2023-05-21T20:48:09.786Z,101501.88
2023-05-21T20:50:38.061Z,101498.44
2023-05-21T20:53:04.933Z,101505.69
2023-05-21T20:55:35.511Z,101506.22
2023-05-21T20:58:03.607Z,101507.25
2023-05-21T21:00:32.032Z,101509.34
2023-05-21T21:03:01.071Z,101506.69
2023-05-21T21:05:28.288Z,101505.91
2023-05-21T21:07:55.954Z,101506.16
2023-05-21T21:10:22.623Z,101506.88
2023-05-21T21:12:49.072Z,101502.78
2023-05-21T21:15:15.523Z,101505.56
2023-05-21T21:17:42.346Z,101504.81
2023-05-21T21:20:09.668Z,101513.69
2023-05-21T21:22:36.191Z,101508.50
2023-05-21T21:25:02.632Z,101497.41
2023-05-21T21:27:29.159Z,101500.31
2023-05-21T21:29:55.661Z,101492.66
2023-05-21T21:32:22.258Z,101494.66
2023-05-21T21:34:49.090Z,101486.59
2023-05-21T21:37:16.358Z,101485.56
2023-05-21T21:39:42.985Z,101482.00
2023-05-21T21:42:10.573Z,101493.69
2023-05-21T21:44:39.196Z,101486.66
2023-05-21T21:47:05.766Z,101494.53
2023-05-21T21:49:32.349Z,101485.78
2023-05-21T21:51:58.763Z,101493.00
2023-05-21T21:54:25.173Z,101487.69
2023-05-21T21:56:51.546Z,101501.09
2023-05-21T21:59:17.991Z,101495.16
2023-05-21T22:01:44.753Z,101493.78
2023-05-21T22:04:11.423Z,101492.91
2023-05-21T22:06:39.102Z,101487.94
2023-05-21T22:09:06.305Z,101484.66
2023-05-21T22:11:32.805Z,101483.16
2023-05-21T22:14:00.412Z,101476.28
2023-05-21T22:16:28.040Z,101480.88
2023-05-21T22:18:54.628Z,101482.13
2023-05-21T22:21:21.499Z,101485.75
2023-05-21T22:23:47.902Z,101481.63
2023-05-21T22:26:14.270Z,101483.56
2023-05-21T22:28:40.936Z,101484.72
2023-05-21T22:31:07.444Z,101487.63
2023-05-21T22:33:33.869Z,101476.25
2023-05-21T22:36:00.480Z,101478.81
2023-05-21T22:38:26.931Z,101480.66
2023-05-21T22:40:53.374Z,101477.72
2023-05-21T22:43:19.859Z,101471.06
2023-05-21T22:45:46.361Z,101472.09
2023-05-21T22:48:14.226Z,101473.16
2023-05-21T22:50:41.021Z,101476.78
2023-05-21T22:53:07.619Z,101467.56
2023-05-21T22:55:33.991Z,101459.22
2023-05-21T22:58:00.522Z,101458.34
2023-05-21T23:00:27.184Z,101453.38
2023-05-21T23:02:54.734Z,101452.81
2023-05-21T23:05:21.535Z,101456.41
2023-05-21T23:07:47.984Z,101459.03
2023-05-21T23:10:14.451Z,101450.09
2023-05-21T23:12:41.339Z,101453.03
2023-05-21T23:15:10.354Z,101446.22
2023-05-21T23:17:37.229Z,101456.06
2023-05-21T23:20:03.825Z,101452.44
2023-05-21T23:22:30.365Z,101449.91
2023-05-21T23:24:56.778Z,101445.44
2023-05-21T23:27:23.227Z,101446.13
2023-05-21T23:29:49.629Z,101439.97
2023-05-21T23:32:16.015Z,101446.97
2023-05-21T23:34:42.880Z,101441.94
2023-05-21T23:37:09.268Z,101448.91
2023-05-21T23:39:36.663Z,101444.63
2023-05-21T23:42:03.134Z,101447.56
2023-05-21T23:44:29.570Z,101448.84
2023-05-21T23:46:55.989Z,101443.72
2023-05-21T23:49:22.437Z,101443.16
2023-05-21T23:51:50.887Z,101440.56
2023-05-21T23:54:17.451Z,101440.50
2023-05-21T23:56:43.915Z,101446.81
2023-05-21T23:59:10.627Z,101435.28
